createdAt,value
2023-04-21T00:00:46.017Z,3.03
2023-04-21T00:01:48.002Z,3.80
2023-04-21T00:02:51.599Z,3.59
2023-04-21T00:03:53.875Z,3.62
2023-04-21T00:04:56.253Z,3.13
2023-04-21T00:06:00.771Z,3.03
2023-04-21T00:07:02.719Z,3.59
2023-04-21T00:08:04.577Z,3.53
2023-04-21T00:09:07.882Z,3.54
2023-04-21T00:10:11.090Z,2.92
2023-04-21T00:11:12.999Z,4.07
2023-04-21T00:12:15.035Z,3.35
2023-04-21T00:13:16.870Z,3.74
2023-04-21T00:14:19.069Z,3.17
2023-04-21T00:15:20.917Z,3.65
2023-04-21T00:16:23.049Z,3.50
2023-04-21T00:17:25.974Z,3.27
2023-04-21T00:18:29.061Z,3.64
2023-04-21T00:19:31.151Z,3.04
2023-04-21T00:20:33.408Z,3.53
2023-04-21T00:21:35.904Z,3.85
2023-04-21T00:22:37.788Z,3.25
2023-04-21T00:23:39.641Z,3.40
2023-04-21T00:24:41.646Z,3.84
2023-04-21T00:25:43.519Z,3.07
2023-04-21T00:26:45.443Z,3.59
2023-04-21T00:27:48.306Z,3.39
2023-04-21T00:28:50.269Z,3.99
2023-04-21T00:29:52.146Z,3.67
2023-04-21T00:30:54.201Z,3.59
2023-04-21T00:31:56.308Z,3.90
2023-04-21T00:32:58.553Z,3.02
2023-04-21T00:34:00.574Z,3.45
2023-04-21T00:35:03.938Z,3.47
2023-04-21T00:36:06.348Z,3.41
2023-04-21T00:37:08.258Z,3.29
2023-04-21T00:38:10.413Z,2.89
2023-04-21T00:39:13.471Z,3.02
2023-04-21T00:40:15.788Z,3.24
2023-04-21T00:41:17.876Z,3.24
2023-04-21T00:42:19.888Z,3.15
2023-04-21T00:43:21.907Z,2.83
2023-04-21T00:44:23.863Z,3.32
2023-04-21T00:45:26.168Z,3.24
2023-04-21T00:46:28.957Z,2.99
2023-04-21T00:47:31.409Z,3.90
2023-04-21T00:48:33.568Z,3.19
2023-04-21T00:49:36.084Z,3.18
2023-04-21T00:50:38.684Z,3.26
2023-04-21T00:51:40.856Z,3.31
2023-04-21T00:52:44.050Z,2.81
2023-04-21T00:53:46.859Z,3.74
2023-04-21T00:54:49.421Z,2.89
2023-04-21T00:55:54.264Z,3.00
2023-04-21T00:56:56.693Z,2.77
2023-04-21T00:57:59.590Z,2.84
2023-04-21T00:59:02.383Z,2.64
2023-04-21T01:00:05.863Z,3.33
2023-04-21T01:01:08.075Z,3.94
2023-04-21T01:02:10.701Z,3.24
2023-04-21T01:03:13.386Z,3.56
2023-04-21T01:04:15.451Z,3.10
2023-04-21T01:05:17.519Z,3.37
2023-04-21T01:06:19.800Z,2.71
2023-04-21T01:07:21.862Z,3.44
2023-04-21T01:08:23.721Z,2.73
2023-04-21T01:09:26.647Z,3.13
2023-04-21T01:10:31.754Z,3.35
2023-04-21T01:11:33.719Z,3.04
2023-04-21T01:12:42.905Z,2.88
2023-04-21T01:13:44.868Z,3.19
2023-04-21T01:14:46.716Z,3.09
2023-04-21T01:15:49.058Z,3.55
2023-04-21T01:16:51.133Z,3.18
2023-04-21T01:17:53.197Z,2.74
2023-04-21T01:18:55.387Z,2.96
2023-04-21T01:20:00.220Z,3.59
2023-04-21T01:21:03.471Z,2.99
2023-04-21T01:22:10.083Z,2.88
2023-04-21T01:23:11.965Z,2.52
2023-04-21T01:24:14.105Z,3.27
2023-04-21T01:25:15.973Z,3.47
2023-04-21T01:27:29.671Z,3.15
2023-04-21T01:28:31.546Z,3.48
2023-04-21T01:29:33.885Z,3.69
2023-04-21T01:30:36.047Z,3.34
2023-04-21T01:31:38.035Z,2.79
2023-04-21T01:32:40.132Z,3.21
2023-04-21T01:33:42.069Z,3.02
2023-04-21T01:34:44.601Z,3.57
2023-04-21T01:35:48.322Z,3.39
2023-04-21T01:36:50.562Z,2.74
2023-04-21T01:37:52.419Z,3.05
2023-04-21T01:38:54.289Z,2.93
2023-04-21T01:39:59.345Z,3.56
2023-04-21T01:41:01.460Z,3.58
2023-04-21T01:42:05.888Z,3.09
2023-04-21T01:43:08.998Z,4.80
2023-04-21T01:44:13.935Z,3.25
2023-04-21T01:45:15.906Z,3.03
2023-04-21T01:46:19.910Z,3.58
2023-04-21T01:47:23.488Z,3.15
2023-04-21T01:48:25.490Z,4.21
2023-04-21T01:49:27.393Z,3.44
2023-04-21T01:50:29.660Z,3.55
2023-04-21T01:51:31.527Z,3.17
2023-04-21T01:52:33.609Z,3.37
2023-04-21T01:53:35.428Z,3.28
2023-04-21T01:54:38.794Z,3.11
2023-04-21T01:55:40.948Z,3.90
2023-04-21T01:56:44.098Z,3.39
2023-04-21T01:57:46.076Z,3.36
2023-04-21T01:58:47.935Z,3.63
2023-04-21T01:59:49.971Z,3.46
2023-04-21T02:00:51.932Z,3.37
2023-04-21T02:01:53.956Z,3.93
2023-04-21T02:02:57.202Z,3.81
2023-04-21T02:03:59.751Z,3.69
2023-04-21T02:05:02.121Z,3.19
2023-04-21T02:06:05.880Z,3.21
2023-04-21T02:07:07.865Z,4.15
2023-04-21T02:08:09.718Z,4.01
2023-04-21T02:09:11.841Z,3.27
2023-04-21T02:10:16.122Z,3.83
2023-04-21T02:11:18.102Z,4.14
2023-04-21T02:12:20.051Z,3.97
2023-04-21T02:13:21.930Z,4.17
2023-04-21T02:14:24.994Z,4.55
2023-04-21T02:15:27.151Z,4.16
2023-04-21T02:16:32.540Z,4.05
2023-04-21T02:17:35.177Z,3.79
2023-04-21T02:18:37.358Z,4.37
2023-04-21T02:19:39.988Z,4.24
2023-04-21T02:20:42.072Z,3.65
2023-04-21T02:21:44.009Z,3.67
2023-04-21T02:22:45.857Z,3.69
2023-04-21T02:23:48.272Z,4.13
2023-04-21T02:24:50.147Z,4.08
2023-04-21T02:25:52.010Z,3.95
2023-04-21T02:26:54.088Z,4.51
2023-04-21T02:27:57.019Z,3.89
2023-04-21T02:28:59.257Z,4.03
2023-04-21T02:30:01.317Z,4.11
2023-04-21T02:31:03.826Z,4.17
2023-04-21T02:33:09.737Z,4.71
2023-04-21T02:34:11.951Z,4.45
2023-04-21T02:35:13.824Z,4.97
2023-04-21T02:36:17.271Z,5.67
2023-04-21T02:37:20.251Z,5.87
2023-04-21T02:38:22.216Z,5.67
2023-04-21T02:39:24.683Z,4.67
2023-04-21T02:40:26.661Z,4.97
2023-04-21T02:41:29.787Z,4.86
2023-04-21T02:42:34.586Z,4.32
2023-04-21T02:43:37.704Z,3.81
2023-04-21T02:44:39.715Z,4.43
2023-04-21T02:45:43.256Z,3.71
2023-04-21T02:46:45.447Z,3.51
2023-04-21T02:47:47.404Z,4.18
2023-04-21T02:48:49.481Z,3.47
2023-04-21T02:49:51.462Z,3.52
2023-04-21T02:50:54.647Z,3.39
2023-04-21T02:51:57.507Z,3.07
2023-04-21T02:52:59.420Z,3.43
2023-04-21T02:54:01.301Z,3.35
2023-04-21T02:55:03.574Z,3.56
2023-04-21T02:56:07.370Z,3.24
2023-04-21T02:57:09.232Z,3.43
2023-04-21T02:58:11.372Z,3.15
2023-04-21T02:59:13.438Z,2.70
2023-04-21T03:00:15.850Z,2.73
2023-04-21T03:01:17.859Z,3.03
2023-04-21T03:02:20.246Z,3.30
2023-04-21T03:03:24.636Z,2.91
2023-04-21T03:04:27.009Z,3.08
2023-04-21T03:05:31.437Z,3.64
2023-04-21T03:06:33.821Z,3.49
2023-04-21T03:07:35.780Z,3.35
2023-04-21T03:08:37.856Z,2.71
2023-04-21T03:09:40.693Z,3.19
2023-04-21T03:10:42.733Z,3.21
2023-04-21T03:11:44.619Z,2.84
2023-04-21T03:12:46.567Z,2.96
2023-04-21T03:13:48.523Z,3.23
2023-04-21T03:14:51.722Z,3.27
2023-04-21T03:15:54.209Z,3.23
2023-04-21T03:16:56.285Z,3.23
2023-04-21T03:17:58.594Z,3.07
2023-04-21T03:19:00.692Z,4.21
2023-04-21T03:20:03.042Z,3.07
2023-04-21T03:21:06.318Z,4.29
2023-04-21T03:22:09.620Z,3.42
2023-04-21T03:23:13.811Z,3.38
2023-04-21T03:24:15.904Z,3.56
2023-04-21T03:25:17.912Z,3.65
2023-04-21T03:26:19.873Z,3.11
2023-04-21T03:27:21.700Z,3.79
2023-04-21T03:28:23.873Z,2.92
2023-04-21T03:29:25.952Z,4.03
2023-04-21T03:30:28.301Z,4.06
2023-04-21T03:31:30.214Z,3.27
2023-04-21T03:32:32.282Z,3.48
2023-04-21T03:33:35.110Z,3.16
2023-04-21T03:34:37.026Z,3.64
2023-04-21T03:35:38.892Z,3.57
2023-04-21T03:36:40.851Z,2.99
2023-04-21T03:37:42.700Z,3.09
2023-04-21T03:38:44.569Z,3.81
2023-04-21T03:39:46.447Z,3.27
2023-04-21T03:40:48.949Z,2.95
2023-04-21T03:41:51.195Z,3.78
2023-04-21T03:42:53.111Z,3.69
2023-04-21T03:43:54.994Z,3.27
2023-04-21T03:45:03.742Z,3.91
2023-04-21T03:46:06.331Z,3.23
2023-04-21T03:47:08.397Z,4.56
2023-04-21T03:48:10.390Z,3.30
2023-04-21T03:49:12.306Z,3.64
2023-04-21T03:50:16.624Z,3.84
2023-04-21T03:51:18.492Z,3.71
2023-04-21T03:52:20.344Z,3.49
2023-04-21T03:53:23.321Z,3.37
2023-04-21T03:54:25.417Z,3.91
2023-04-21T03:55:27.334Z,3.56
2023-04-21T03:56:29.443Z,4.52
2023-04-21T03:57:31.413Z,4.41
2023-04-21T03:58:33.681Z,4.05
2023-04-21T03:59:36.680Z,3.72
2023-04-21T04:00:38.960Z,4.08
2023-04-21T04:01:41.231Z,3.52
2023-04-21T04:02:43.243Z,4.25
2023-04-21T04:03:45.375Z,4.41
2023-04-21T04:04:47.618Z,4.59
2023-04-21T04:05:49.728Z,5.03
2023-04-21T04:06:51.704Z,5.13
2023-04-21T04:07:53.567Z,4.80
2023-04-21T04:08:55.524Z,5.69
2023-04-21T04:09:57.409Z,5.37
2023-04-21T04:10:59.494Z,5.55
2023-04-21T04:12:01.356Z,5.50
2023-04-21T04:13:03.294Z,5.27
2023-04-21T04:14:05.174Z,5.56
2023-04-21T04:15:08.194Z,5.37
2023-04-21T04:16:10.634Z,5.36
2023-04-21T04:17:14.822Z,4.26
2023-04-21T04:18:16.740Z,4.88
2023-04-21T04:19:18.890Z,5.72
2023-04-21T04:20:24.060Z,5.29
2023-04-21T04:21:26.754Z,5.01
2023-04-21T04:22:28.613Z,6.05
2023-04-21T04:23:30.480Z,4.77
2023-04-21T04:24:33.375Z,4.81
2023-04-21T04:25:35.256Z,5.40
2023-04-21T04:26:37.207Z,5.69
2023-04-21T04:27:39.024Z,4.76
2023-04-21T04:28:40.932Z,5.45
2023-04-21T04:29:42.808Z,5.73
2023-04-21T04:30:44.874Z,5.30
2023-04-21T04:31:46.802Z,5.20
2023-04-21T04:32:48.926Z,3.89
2023-04-21T04:33:55.550Z,5.55
2023-04-21T04:34:57.765Z,5.34
2023-04-21T04:35:59.953Z,4.61
2023-04-21T04:37:02.241Z,4.54
2023-04-21T04:38:04.344Z,4.81
2023-04-21T04:39:08.312Z,4.16
2023-04-21T04:40:11.396Z,3.96
2023-04-21T04:41:13.306Z,4.35
2023-04-21T04:42:15.166Z,3.07
2023-04-21T04:43:17.142Z,3.59
2023-04-21T04:44:19.660Z,3.97
2023-04-21T04:45:21.766Z,4.00
2023-04-21T04:46:23.860Z,3.63
2023-04-21T04:47:25.856Z,3.19
2023-04-21T04:48:28.726Z,3.99
2023-04-21T04:49:30.595Z,3.07
2023-04-21T04:50:32.739Z,3.21
2023-04-21T04:51:34.849Z,3.23
2023-04-21T04:52:37.992Z,4.03
2023-04-21T04:53:40.017Z,4.28
2023-04-21T04:54:42.184Z,3.14
2023-04-21T04:55:44.049Z,4.15
2023-04-21T04:56:46.084Z,3.27
2023-04-21T04:57:48.002Z,5.00
2023-04-21T04:58:50.491Z,3.38
2023-04-21T04:59:56.080Z,3.47
2023-04-21T05:00:58.310Z,3.29
2023-04-21T05:02:00.263Z,3.41
2023-04-21T05:03:02.673Z,3.33
2023-04-21T05:04:05.056Z,2.94
2023-04-21T05:05:08.330Z,3.49
2023-04-21T05:06:10.769Z,3.51
2023-04-21T05:07:12.922Z,3.53
2023-04-21T05:08:18.133Z,3.18
2023-04-21T05:09:22.246Z,2.70
2023-04-21T05:10:24.262Z,3.09
2023-04-21T05:11:26.840Z,2.75
2023-04-21T05:12:30.495Z,2.77
2023-04-21T05:13:32.416Z,3.02
2023-04-21T05:14:36.620Z,3.21
2023-04-21T05:15:38.520Z,3.39
2023-04-21T05:16:43.017Z,3.31
2023-04-21T05:17:45.285Z,3.21
2023-04-21T05:18:47.328Z,2.89
2023-04-21T05:19:49.171Z,3.05
2023-04-21T05:20:51.276Z,4.37
2023-04-21T05:21:58.506Z,2.88
2023-04-21T05:23:00.426Z,3.38
2023-04-21T05:24:03.605Z,4.34
2023-04-21T05:25:07.992Z,3.45
2023-04-21T05:26:10.459Z,3.11
2023-04-21T05:27:12.490Z,4.21
2023-04-21T05:28:14.486Z,3.05
2023-04-21T05:29:16.418Z,3.41
2023-04-21T05:30:18.845Z,4.18
2023-04-21T05:31:22.885Z,2.95
2023-04-21T05:32:25.281Z,2.88
2023-04-21T05:33:27.273Z,3.26
2023-04-21T05:34:30.847Z,3.37
2023-04-21T05:35:34.195Z,3.52
2023-04-21T05:36:39.907Z,3.46
2023-04-21T05:37:41.796Z,3.28
2023-04-21T05:38:43.752Z,3.27
2023-04-21T05:39:46.085Z,3.19
2023-04-21T05:40:54.855Z,3.34
2023-04-21T05:41:56.917Z,3.56
2023-04-21T05:42:58.902Z,3.28
2023-04-21T05:44:01.269Z,3.54
2023-04-21T05:45:04.804Z,3.17
2023-04-21T05:46:10.262Z,3.46
2023-04-21T05:47:12.751Z,3.36
2023-04-21T05:48:14.650Z,3.39
2023-04-21T05:49:16.574Z,3.15
2023-04-21T05:50:18.852Z,3.16
2023-04-21T05:51:21.910Z,3.27
2023-04-21T05:52:23.867Z,3.17
2023-04-21T05:53:25.891Z,3.57
2023-04-21T05:54:27.982Z,3.23
2023-04-21T05:55:29.964Z,3.79
2023-04-21T05:56:32.017Z,3.19
2023-04-21T05:57:33.860Z,3.21
2023-04-21T05:58:36.449Z,3.10
2023-04-21T05:59:38.623Z,2.42
2023-04-21T06:00:40.760Z,2.71
2023-04-21T06:01:44.324Z,3.19
2023-04-21T06:02:46.423Z,3.04
2023-04-21T06:03:49.451Z,3.60
2023-04-21T06:04:51.782Z,3.65
2023-04-21T06:05:55.095Z,2.45
2023-04-21T06:06:57.557Z,3.16
2023-04-21T06:07:59.535Z,3.35
2023-04-21T06:09:01.393Z,3.72
2023-04-21T06:10:04.468Z,3.46
2023-04-21T06:11:06.642Z,3.21
2023-04-21T06:12:08.628Z,3.15
2023-04-21T06:13:10.584Z,3.19
2023-04-21T06:14:12.437Z,2.69
2023-04-21T06:15:14.337Z,3.34
2023-04-21T06:16:16.330Z,3.71
2023-04-21T06:17:19.505Z,3.37
2023-04-21T06:18:21.952Z,3.72
2023-04-21T06:19:24.051Z,3.59
2023-04-21T06:20:26.038Z,3.25
2023-04-21T06:21:27.937Z,3.47
2023-04-21T06:22:29.891Z,3.53
2023-04-21T06:23:31.932Z,2.90
2023-04-21T06:24:33.903Z,3.54
2023-04-21T06:25:35.901Z,3.31
2023-04-21T06:26:38.059Z,3.04
2023-04-21T06:27:39.934Z,2.61
2023-04-21T06:28:41.893Z,3.20
2023-04-21T06:29:44.264Z,2.94
2023-04-21T06:30:46.347Z,2.99
2023-04-21T06:31:48.413Z,3.85
2023-04-21T06:32:50.465Z,3.40
2023-04-21T06:33:52.486Z,2.87
2023-04-21T06:34:54.352Z,3.89
2023-04-21T06:35:57.622Z,3.47
2023-04-21T06:36:59.710Z,2.83
2023-04-21T06:38:01.577Z,4.48
2023-04-21T06:39:03.561Z,2.89
2023-04-21T06:40:07.543Z,3.07
2023-04-21T06:41:09.631Z,3.17
2023-04-21T06:42:11.518Z,3.22
2023-04-21T06:43:13.490Z,3.53
2023-04-21T06:44:15.370Z,3.37
2023-04-21T06:45:19.089Z,3.59
2023-04-21T06:46:21.358Z,3.72
2023-04-21T06:47:23.492Z,3.01
2023-04-21T06:48:25.713Z,3.01
2023-04-21T06:49:27.573Z,3.07
2023-04-21T06:50:29.952Z,3.45
2023-04-21T06:51:32.081Z,3.74
2023-04-21T06:52:33.945Z,3.20
2023-04-21T06:53:35.806Z,6.53
2023-04-21T06:54:37.648Z,9.32
2023-04-21T06:55:39.503Z,7.67
2023-04-21T06:56:41.488Z,4.90
2023-04-21T06:57:44.254Z,3.63
2023-04-21T06:58:49.031Z,3.67
2023-04-21T06:59:51.747Z,3.35
2023-04-21T07:00:53.876Z,4.39
2023-04-21T07:01:56.133Z,3.11
2023-04-21T07:02:58.417Z,2.89
2023-04-21T07:04:00.733Z,3.31
2023-04-21T07:05:03.324Z,3.35
2023-04-21T07:06:05.668Z,2.98
2023-04-21T07:07:07.688Z,3.25
2023-04-21T07:08:10.260Z,2.63
2023-04-21T07:09:12.352Z,3.15
2023-04-21T07:10:14.637Z,2.93
2023-04-21T07:11:17.746Z,3.35
2023-04-21T07:12:19.600Z,3.03
2023-04-21T07:13:21.553Z,3.34
2023-04-21T07:14:24.308Z,3.39
2023-04-21T07:15:26.422Z,4.47
2023-04-21T07:16:32.136Z,2.80
2023-04-21T07:17:35.465Z,2.84
2023-04-21T07:18:39.407Z,3.01
2023-04-21T07:19:41.346Z,3.84
2023-04-21T07:20:44.332Z,3.32
2023-04-21T07:21:46.323Z,4.16
2023-04-21T07:22:48.283Z,3.11
2023-04-21T07:23:50.252Z,3.71
2023-04-21T07:24:52.147Z,3.79
2023-04-21T07:25:54.387Z,3.39
2023-04-21T07:26:56.375Z,3.55
2023-04-21T07:27:58.396Z,3.40
2023-04-21T07:29:00.432Z,3.66
2023-04-21T07:30:06.557Z,3.65
2023-04-21T07:31:08.614Z,2.89
2023-04-21T07:32:10.766Z,3.11
2023-04-21T07:33:13.511Z,3.83
2023-04-21T07:34:15.550Z,3.23
2023-04-21T07:35:17.826Z,2.22
2023-04-21T07:36:21.096Z,2.87
2023-04-21T07:37:24.907Z,2.89
2023-04-21T07:38:27.127Z,2.71
2023-04-21T07:39:28.991Z,8.23
2023-04-21T07:40:31.267Z,15.43
2023-04-21T07:41:33.382Z,4.26
2023-04-21T07:42:35.488Z,3.07
2023-04-21T07:43:38.746Z,2.74
2023-04-21T07:44:42.649Z,2.03
2023-04-21T07:45:49.080Z,2.47
2023-04-21T07:46:51.266Z,2.44
2023-04-21T07:47:53.221Z,2.87
2023-04-21T07:48:57.308Z,2.76
2023-04-21T07:49:59.433Z,2.88
2023-04-21T07:51:01.545Z,2.25
2023-04-21T07:52:04.630Z,3.22
2023-04-21T07:53:06.483Z,3.30
2023-04-21T07:54:08.370Z,2.42
2023-04-21T07:55:10.234Z,2.75
2023-04-21T07:56:12.812Z,2.42
2023-04-21T07:57:14.769Z,2.42
2023-04-21T07:58:16.949Z,2.67
2023-04-21T07:59:19.221Z,3.75
2023-04-21T08:00:21.585Z,2.69
2023-04-21T08:01:23.667Z,2.09
2023-04-21T08:02:26.780Z,2.74
2023-04-21T08:03:29.215Z,2.83
2023-04-21T08:04:31.451Z,2.83
2023-04-21T08:05:36.674Z,2.35
2023-04-21T08:06:38.924Z,4.22
2023-04-21T08:07:40.872Z,3.10
2023-04-21T08:08:42.910Z,2.61
2023-04-21T08:09:44.959Z,2.51
2023-04-21T08:10:47.942Z,3.02
2023-04-21T08:11:51.846Z,2.70
2023-04-21T08:12:54.083Z,2.59
2023-04-21T08:13:56.190Z,3.04
2023-04-21T08:14:58.311Z,2.33
2023-04-21T08:16:00.224Z,2.30
2023-04-21T08:17:02.289Z,3.43
2023-04-21T08:18:04.612Z,2.79
2023-04-21T08:19:07.966Z,3.27
2023-04-21T08:20:11.357Z,2.78
2023-04-21T08:21:13.243Z,2.17
2023-04-21T08:22:15.512Z,3.20
2023-04-21T08:23:19.465Z,1.98
2023-04-21T08:24:22.277Z,2.59
2023-04-21T08:25:24.873Z,2.41
2023-04-21T08:26:27.787Z,2.65
2023-04-21T08:27:29.797Z,2.19
2023-04-21T08:28:31.669Z,2.47
2023-04-21T08:29:33.632Z,2.31
2023-04-21T08:30:35.825Z,2.13
2023-04-21T08:31:38.717Z,2.51
2023-04-21T08:32:40.785Z,2.77
2023-04-21T08:33:57.903Z,2.42
2023-04-21T08:34:49.064Z,2.48
2023-04-21T08:36:02.320Z,3.01
2023-04-21T08:36:54.942Z,2.36
2023-04-21T08:37:56.839Z,2.77
2023-04-21T08:38:59.239Z,2.10
2023-04-21T08:40:01.715Z,2.48
2023-04-21T08:41:06.706Z,2.69
2023-04-21T08:42:09.142Z,3.01
2023-04-21T08:43:11.578Z,2.58
2023-04-21T08:44:13.535Z,2.77
2023-04-21T08:45:15.786Z,2.65
2023-04-21T08:46:18.994Z,2.48
2023-04-21T08:47:24.397Z,2.47
2023-04-21T08:48:29.092Z,2.56
2023-04-21T08:49:33.632Z,2.34
2023-04-21T08:50:38.184Z,2.22
2023-04-21T08:51:40.464Z,2.16
2023-04-21T08:52:42.359Z,2.13
2023-04-21T08:53:44.228Z,2.57
2023-04-21T08:54:46.720Z,2.85
2023-04-21T08:56:03.169Z,2.13
2023-04-21T08:57:04.557Z,2.14
2023-04-21T08:58:05.569Z,2.21
2023-04-21T08:59:07.544Z,3.23
2023-04-21T09:00:11.664Z,2.26
2023-04-21T09:01:13.795Z,2.50
2023-04-21T09:02:21.473Z,2.37
2023-04-21T09:03:26.401Z,2.14
2023-04-21T09:04:30.761Z,2.62
2023-04-21T09:05:34.575Z,2.38
2023-04-21T09:06:40.877Z,2.21
2023-04-21T09:07:42.951Z,2.85
2023-04-21T09:08:53.636Z,3.33
2023-04-21T09:09:57.477Z,2.37
2023-04-21T09:11:02.688Z,2.11
2023-04-21T09:12:06.483Z,2.33
2023-04-21T09:13:09.663Z,2.89
2023-04-21T09:14:11.609Z,2.39
2023-04-21T09:15:14.704Z,2.34
2023-04-21T09:16:21.151Z,2.71
2023-04-21T09:17:31.101Z,2.08
2023-04-21T09:18:33.169Z,2.77
2023-04-21T09:19:35.825Z,2.10
2023-04-21T09:20:37.904Z,2.58
2023-04-21T09:21:43.493Z,2.00
2023-04-21T09:22:49.302Z,2.19
2023-04-21T09:23:53.159Z,2.47
2023-04-21T09:24:58.722Z,2.39
2023-04-21T09:26:02.753Z,2.34
2023-04-21T09:27:05.907Z,2.33
2023-04-21T09:28:09.378Z,1.99
2023-04-21T09:29:11.389Z,1.99
2023-04-21T09:30:20.157Z,1.70
2023-04-21T09:31:25.300Z,2.26
2023-04-21T09:32:27.609Z,1.90
2023-04-21T09:33:45.637Z,2.25
2023-04-21T09:34:41.806Z,1.69
2023-04-21T09:35:43.738Z,2.56
2023-04-21T09:36:49.366Z,1.83
2023-04-21T09:37:51.393Z,2.33
2023-04-21T09:39:15.448Z,1.97
2023-04-21T09:41:07.454Z,2.31
2023-04-21T09:42:10.592Z,2.01
2023-04-21T09:43:12.466Z,1.85
2023-04-21T09:44:15.214Z,2.41
2023-04-21T09:45:36.666Z,2.71
2023-04-21T09:46:23.191Z,2.21
2023-04-21T09:47:28.581Z,3.32
2023-04-21T09:48:33.328Z,2.16
2023-04-21T09:49:37.982Z,2.76
2023-04-21T09:51:20.857Z,2.41
2023-04-21T09:54:13.032Z,2.48
2023-04-21T09:55:12.177Z,2.83
2023-04-21T09:56:17.884Z,2.05
2023-04-21T09:57:25.356Z,2.06
2023-04-21T09:58:30.334Z,2.69
2023-04-21T09:59:37.558Z,2.37
2023-04-21T10:00:40.320Z,2.09
2023-04-21T10:01:45.186Z,2.33
2023-04-21T10:02:51.140Z,2.20
2023-04-21T10:03:54.500Z,2.74
2023-04-21T10:04:57.579Z,2.63
2023-04-21T10:05:59.930Z,1.95
2023-04-21T10:07:04.867Z,2.29
2023-04-21T10:08:09.169Z,2.84
2023-04-21T10:09:12.394Z,2.29
2023-04-21T10:10:28.092Z,2.80
2023-04-21T10:11:30.319Z,2.89
2023-04-21T10:12:34.142Z,1.79
2023-04-21T10:13:37.535Z,2.15
2023-04-21T10:14:39.604Z,2.44
2023-04-21T10:15:42.029Z,2.40
2023-04-21T10:16:49.531Z,2.47
2023-04-21T10:17:51.589Z,2.27
2023-04-21T10:18:53.714Z,2.23
2023-04-21T10:19:57.134Z,2.85
2023-04-21T10:21:10.681Z,2.37
2023-04-21T10:22:13.294Z,2.49
2023-04-21T10:23:30.835Z,2.29
2023-04-21T10:24:41.943Z,2.06
2023-04-21T10:25:47.716Z,1.87
2023-04-21T10:26:54.627Z,2.27
2023-04-21T10:27:55.969Z,2.65
2023-04-21T10:29:00.125Z,2.26
2023-04-21T10:30:20.426Z,2.85
2023-04-21T10:31:25.697Z,2.09
2023-04-21T10:32:41.712Z,2.69
2023-04-21T10:34:09.012Z,1.93
2023-04-21T10:35:14.005Z,2.69
2023-04-21T10:36:19.970Z,2.76
2023-04-21T10:37:22.005Z,3.13
2023-04-21T10:38:40.199Z,3.03
2023-04-21T10:39:44.710Z,2.95
2023-04-21T10:40:47.811Z,2.62
2023-04-21T10:41:50.214Z,2.30
2023-04-21T10:42:52.072Z,2.63
2023-04-21T10:44:02.929Z,2.39
2023-04-21T10:45:08.404Z,2.49
2023-04-21T10:46:35.009Z,3.29
2023-04-21T10:47:43.341Z,2.51
2023-04-21T10:48:53.488Z,2.57
2023-04-21T10:49:57.089Z,2.74
2023-04-21T10:51:01.825Z,2.86
2023-04-21T10:52:08.180Z,2.62
2023-04-21T10:53:15.491Z,2.54
2023-04-21T10:54:19.512Z,3.24
2023-04-21T10:55:24.153Z,2.66
2023-04-21T10:56:26.143Z,2.62
2023-04-21T10:57:33.737Z,2.53
2023-04-21T10:58:37.073Z,2.56
2023-04-21T10:59:39.983Z,2.71
2023-04-21T11:00:42.912Z,2.41
2023-04-21T11:01:45.369Z,3.04
2023-04-21T11:03:05.972Z,3.63
2023-04-21T11:04:13.851Z,2.58
2023-04-21T11:05:16.366Z,2.91
2023-04-21T11:06:18.527Z,2.96
2023-04-21T11:07:24.969Z,2.51
2023-04-21T11:08:27.052Z,2.63
2023-04-21T11:09:29.662Z,2.54
2023-04-21T11:13:00.296Z,3.28
2023-04-21T11:14:03.075Z,2.47
2023-04-21T11:15:09.276Z,2.75
2023-04-21T11:16:11.877Z,2.29
2023-04-21T11:17:16.390Z,2.26
2023-04-21T11:18:18.402Z,2.52
2023-04-21T11:19:22.034Z,2.19
2023-04-21T11:20:24.554Z,2.84
2023-04-21T11:21:28.960Z,2.55
2023-04-21T11:22:30.954Z,2.52
2023-04-21T11:23:32.936Z,2.87
2023-04-21T11:24:34.813Z,2.77
2023-04-21T11:25:36.901Z,2.79
2023-04-21T11:26:39.166Z,3.83
2023-04-21T11:27:41.043Z,2.75
2023-04-21T11:28:42.887Z,2.59
2023-04-21T11:29:45.984Z,2.18
2023-04-21T11:30:48.282Z,2.91
2023-04-21T11:31:50.857Z,3.21
2023-04-21T11:32:56.101Z,3.80
2023-04-21T11:33:59.743Z,3.04
2023-04-21T11:35:01.866Z,3.09
2023-04-21T11:36:07.369Z,2.87
2023-04-21T11:37:12.033Z,3.67
2023-04-21T11:38:14.023Z,2.94
2023-04-21T11:39:18.175Z,2.79
2023-04-21T11:40:21.142Z,3.09
2023-04-21T11:41:23.741Z,3.48
2023-04-21T11:42:27.045Z,4.00
2023-04-21T11:43:29.063Z,2.99
2023-04-21T11:44:41.962Z,3.09
2023-04-21T11:45:47.751Z,3.02
2023-04-21T11:46:50.300Z,2.93
2023-04-21T11:47:56.109Z,3.41
2023-04-21T11:49:06.886Z,2.87
2023-04-21T11:50:10.736Z,3.31
2023-04-21T11:51:19.291Z,3.47
2023-04-21T11:52:32.352Z,3.49
2023-04-21T11:53:34.494Z,3.99
2023-04-21T11:54:38.089Z,3.28
2023-04-21T11:56:56.224Z,2.70
2023-04-21T11:57:58.538Z,2.67
2023-04-21T11:59:00.644Z,3.00
2023-04-21T12:00:05.516Z,2.97
2023-04-21T12:01:08.802Z,3.08
2023-04-21T12:02:14.672Z,3.79
2023-04-21T12:03:19.323Z,3.26
2023-04-21T12:04:23.821Z,3.00
2023-04-21T12:05:34.717Z,3.24
2023-04-21T12:06:37.085Z,2.92
2023-04-21T12:07:42.419Z,2.35
2023-04-21T12:08:44.359Z,3.44
2023-04-21T12:09:50.312Z,3.67
2023-04-21T12:10:52.325Z,2.98
2023-04-21T12:11:56.186Z,2.71
2023-04-21T12:12:58.194Z,3.27
2023-04-21T12:14:01.257Z,3.17
2023-04-21T12:15:04.593Z,4.06
2023-04-21T12:16:07.096Z,3.70
2023-04-21T12:17:09.187Z,3.47
2023-04-21T12:18:15.586Z,2.95
2023-04-21T12:19:41.182Z,3.34
2023-04-21T12:20:52.035Z,2.98
2023-04-21T12:21:54.967Z,2.57
2023-04-21T12:22:57.026Z,3.35
2023-04-21T12:23:59.006Z,3.21
2023-04-21T12:25:01.075Z,2.94
2023-04-21T12:26:04.557Z,2.70
2023-04-21T12:27:08.694Z,3.12
2023-04-21T12:28:10.900Z,3.03
2023-04-21T12:29:13.007Z,3.01
2023-04-21T12:30:15.179Z,3.07
2023-04-21T12:31:19.893Z,3.91
2023-04-21T12:32:24.484Z,3.57
2023-04-21T12:33:26.726Z,3.23
2023-04-21T12:34:28.858Z,3.62
2023-04-21T12:35:30.854Z,3.21
2023-04-21T12:36:35.340Z,3.17
2023-04-21T12:37:37.087Z,3.08
2023-04-21T12:38:38.987Z,2.97
2023-04-21T12:39:42.018Z,2.55
2023-04-21T12:40:44.109Z,3.83
2023-04-21T12:41:45.989Z,3.60
2023-04-21T12:42:47.844Z,3.23
2023-04-21T12:43:49.737Z,2.61
2023-04-21T12:44:51.665Z,3.17
2023-04-21T12:45:53.595Z,3.29
2023-04-21T12:46:55.862Z,3.08
2023-04-21T12:47:57.801Z,2.59
2023-04-21T12:49:04.180Z,3.82
2023-04-21T12:50:07.931Z,2.66
2023-04-21T12:51:09.920Z,3.79
2023-04-21T12:52:11.779Z,3.74
2023-04-21T12:53:14.455Z,3.31
2023-04-21T12:54:16.557Z,3.15
2023-04-21T12:55:18.599Z,4.22
2023-04-21T12:56:20.678Z,3.27
2023-04-21T12:57:23.330Z,3.91
2023-04-21T12:58:25.230Z,3.61
2023-04-21T12:59:27.302Z,2.85
2023-04-21T13:00:29.660Z,3.93
2023-04-21T13:01:32.079Z,3.10
2023-04-21T13:02:34.104Z,3.11
2023-04-21T13:03:36.239Z,2.69
2023-04-21T13:04:38.296Z,3.05
2023-04-21T13:05:40.414Z,3.22
2023-04-21T13:06:42.610Z,3.44
2023-04-21T13:07:44.818Z,3.16
2023-04-21T13:08:47.675Z,3.19
2023-04-21T13:09:49.965Z,3.18
2023-04-21T13:10:53.376Z,2.96
2023-04-21T13:11:55.693Z,4.59
2023-04-21T13:12:57.710Z,4.49
2023-04-21T13:13:59.591Z,4.53
2023-04-21T13:15:01.947Z,3.35
2023-04-21T13:16:06.073Z,2.81
2023-04-21T13:17:10.716Z,2.90
2023-04-21T13:18:12.800Z,3.73
2023-04-21T13:19:14.687Z,5.33
2023-04-21T13:20:18.392Z,4.07
2023-04-21T13:21:20.559Z,4.67
2023-04-21T13:22:22.544Z,4.21
2023-04-21T13:23:26.276Z,3.84
2023-04-21T13:24:29.067Z,3.93
2023-04-21T13:25:31.854Z,3.64
2023-04-21T13:26:33.935Z,4.22
2023-04-21T13:27:35.991Z,3.36
2023-04-21T13:28:38.077Z,3.32
2023-04-21T13:29:40.051Z,3.01
2023-04-21T13:30:42.502Z,3.62
2023-04-21T13:31:45.051Z,3.54
2023-04-21T13:32:48.760Z,3.62
2023-04-21T13:33:52.982Z,4.19
2023-04-21T13:34:54.599Z,4.13
2023-04-21T13:35:56.507Z,5.12
2023-04-21T13:36:59.344Z,5.62
2023-04-21T13:38:02.327Z,6.08
2023-04-21T13:39:04.311Z,6.37
2023-04-21T13:40:09.227Z,6.23
2023-04-21T13:41:11.328Z,7.14
2023-04-21T13:42:13.314Z,6.55
2023-04-21T13:43:15.295Z,6.29
2023-04-21T13:44:19.188Z,6.84
2023-04-21T13:45:21.207Z,7.05
2023-04-21T13:46:25.053Z,6.13
2023-04-21T13:47:28.423Z,4.45
2023-04-21T13:48:31.626Z,4.39
2023-04-21T13:49:34.782Z,3.63
2023-04-21T13:50:37.145Z,3.35
2023-04-21T13:51:40.790Z,3.73
2023-04-21T13:52:43.907Z,3.18
2023-04-21T13:53:45.947Z,3.40
2023-04-21T13:54:47.833Z,2.97
2023-04-21T13:55:50.457Z,2.89
2023-04-21T13:56:52.891Z,2.98
2023-04-21T13:57:54.960Z,3.34
2023-04-21T13:58:58.299Z,3.60
2023-04-21T14:00:01.153Z,6.21
2023-04-21T14:01:03.254Z,4.53
2023-04-21T14:02:05.327Z,3.47
2023-04-21T14:03:09.728Z,3.05
2023-04-21T14:04:12.080Z,2.85
2023-04-21T14:05:14.465Z,2.87
2023-04-21T14:06:16.796Z,2.90
2023-04-21T14:07:19.243Z,3.69
2023-04-21T14:08:21.568Z,3.52
2023-04-21T14:09:23.550Z,2.88
2023-04-21T14:10:25.654Z,2.91